Ana Sayfa
METAR-TAF:

METAR-TAF

Havaalanları :

Fairfield Municipal Airport

Fairfield, Illinois, Amerika Birleşik Devletleri

Enlem: 38-22-43N, Boylam: 088-24-46W, yükseklik: 133 m

Güncel hava durumu gözlemi

Rapor saat 12:35 UTC de 18 dakika önce yapıldı.
Rüzgar güney/güneydoğudan 4 kt
Sıcaklık 24°C
Nem 83%
Basınç 1019 hPa
Görüş mesafesi: 16.1 km
7500 ft yükseklikte parçalı bulutlu

METAR: KFWC 181235Z AUTO 16004KT 10SM SCT075 24/21 A3008 RMK AO2 T02400207

Saat: 07:53 (12:53 UTC)


TAF: eksik

4.000'den fazla havaalanı için hava durumu gözlemleri ve tahminleri (METAR ve TAF raporları).

Kullanılabilir istasyonlar harita üzerinde sarı ve kırmızı noktalarla gösterilir.

İstasyonun adını görmek için fareyi noktanın üzerinde gezdirin.

Sonrasında hava gözlem ve tahminlerini görmek için tıklayın.

Haritayı değiştirmek için: yaklaştırmak için siyah artı işaretli yeşil düğmeye ve uzaklaştırmak için de eksi işaretli düğmeye hızla tıklayın; bitişik haritalar için yeşil okları kullanın.


METAR-TAF: